Terminal Aerodrome Forecast
Issued by NWS

Home | Current Version | Previous Version | Text Only | Print | Product List | Glossary On
Versions: 1 2 3 4 5 6 7 8 9 10 11 12 13 14 15 16 17 18 19 20
000
FTUS46 KSEW 291200 AAA
TAFOLM
TAF AMD
KOLM 291214Z 2912/3012 21004KT 2SM BR OVC003
      TEMPO 2913/2915 1/4SM FG VV001
     FM291700 VRB04KT P6SM SKC
     FM292100 27005KT P6SM SKC
     FM300300 00000KT P6SM SKC=

USA.gov is the U.S. government's official web portal to all federal, state and local government web resources and services.